sensor_id;sensor_type;location;lat;lon;timestamp;pressure;altitude;pressure_sealevel;temperature;humidity
12594;BME280;6362;50.208;9.182;2023-08-06T00:01:49;98997.78;;;14.52;100.00
12594;BME280;6362;50.208;9.182;2023-08-06T00:04:14;98992.47;;;14.53;100.00
12594;BME280;6362;50.208;9.182;2023-08-06T00:06:40;98994.06;;;14.58;100.00
12594;BME280;6362;50.208;9.182;2023-08-06T00:09:05;98992.19;;;14.61;100.00
12594;BME280;6362;50.208;9.182;2023-08-06T00:11:31;98993.06;;;14.62;100.00
12594;BME280;6362;50.208;9.182;2023-08-06T00:13:56;98992.13;;;14.63;100.00
12594;BME280;6362;50.208;9.182;2023-08-06T00:16:22;98991.22;;;14.64;100.00
12594;BME280;6362;50.208;9.182;2023-08-06T00:18:47;98987.69;;;14.65;100.00
12594;BME280;6362;50.208;9.182;2023-08-06T00:21:13;98992.03;;;14.66;100.00
12594;BME280;6362;50.208;9.182;2023-08-06T00:23:39;98984.97;;;14.68;100.00
12594;BME280;6362;50.208;9.182;2023-08-06T00:26:05;98981.56;;;14.66;100.00
12594;BME280;6362;50.208;9.182;2023-08-06T00:28:30;98978.94;;;14.66;100.00
12594;BME280;6362;50.208;9.182;2023-08-06T00:30:56;98974.59;;;14.65;100.00
12594;BME280;6362;50.208;9.182;2023-08-06T00:33:24;98974.59;;;14.65;100.00
12594;BME280;6362;50.208;9.182;2023-08-06T00:35:50;98972.84;;;14.65;100.00
12594;BME280;6362;50.208;9.182;2023-08-06T00:38:16;98965.03;;;14.64;100.00
12594;BME280;6362;50.208;9.182;2023-08-06T00:40:41;98965.13;;;14.62;100.00
12594;BME280;6362;50.208;9.182;2023-08-06T00:43:07;98969.69;;;14.57;100.00
12594;BME280;6362;50.208;9.182;2023-08-06T00:45:36;98959.31;;;14.54;100.00
12594;BME280;6362;50.208;9.182;2023-08-06T00:48:04;98961.25;;;14.49;100.00
12594;BME280;6362;50.208;9.182;2023-08-06T00:50:30;98963.94;;;14.47;100.00
12594;BME280;6362;50.208;9.182;2023-08-06T00:52:56;98956.97;;;14.46;100.00
12594;BME280;6362;50.208;9.182;2023-08-06T00:55:22;98954.44;;;14.45;100.00
12594;BME280;6362;50.208;9.182;2023-08-06T00:57:47;98957.09;;;14.43;100.00
12594;BME280;6362;50.208;9.182;2023-08-06T01:00:13;98958.13;;;14.39;100.00
12594;BME280;6362;50.208;9.182;2023-08-06T01:02:38;98955.63;;;14.36;100.00
12594;BME280;6362;50.208;9.182;2023-08-06T01:05:04;98950.47;;;14.35;100.00
12594;BME280;6362;50.208;9.182;2023-08-06T01:11:33;98941.78;;;14.34;100.00
12594;BME280;6362;50.208;9.182;2023-08-06T01:16:15;98952.06;;;14.39;100.00
12594;BME280;6362;50.208;9.182;2023-08-06T01:18:42;98948.53;;;14.40;100.00
12594;BME280;6362;50.208;9.182;2023-08-06T01:21:14;98941.53;;;14.40;100.00
12594;BME280;6362;50.208;9.182;2023-08-06T01:23:40;98936.28;;;14.40;100.00
12594;BME280;6362;50.208;9.182;2023-08-06T01:31:39;98918.22;;;14.34;100.00
12594;BME280;6362;50.208;9.182;2023-08-06T01:34:10;98920.91;;;14.33;100.00
12594;BME280;6362;50.208;9.182;2023-08-06T01:36:38;98913.09;;;14.31;100.00
12594;BME280;6362;50.208;9.182;2023-08-06T01:39:04;98911.41;;;14.30;100.00
12594;BME280;6362;50.208;9.182;2023-08-06T01:41:30;98907.19;;;14.26;100.00
12594;BME280;6362;50.208;9.182;2023-08-06T01:43:55;98897.66;;;14.25;100.00
12594;BME280;6362;50.208;9.182;2023-08-06T01:46:21;98898.50;;;14.25;100.00
12594;BME280;6362;50.208;9.182;2023-08-06T01:48:46;98902.94;;;14.23;100.00
12594;BME280;6362;50.208;9.182;2023-08-06T01:51:11;98887.38;;;14.20;100.00
12594;BME280;6362;50.208;9.182;2023-08-06T01:53:37;98885.75;;;14.18;100.00
12594;BME280;6362;50.208;9.182;2023-08-06T01:56:02;98884.97;;;14.16;100.00
12594;BME280;6362;50.208;9.182;2023-08-06T01:58:28;98879.91;;;14.11;100.00
12594;BME280;6362;50.208;9.182;2023-08-06T02:00:53;98876.53;;;14.08;100.00
12594;BME280;6362;50.208;9.182;2023-08-06T02:03:19;98877.56;;;14.04;100.00
12594;BME280;6362;50.208;9.182;2023-08-06T02:05:44;98879.41;;;14.02;100.00
12594;BME280;6362;50.208;9.182;2023-08-06T02:08:10;98878.78;;;13.95;100.00
12594;BME280;6362;50.208;9.182;2023-08-06T02:10:36;98875.25;;;13.96;100.00
12594;BME280;6362;50.208;9.182;2023-08-06T02:13:01;98870.94;;;13.95;100.00
12594;BME280;6362;50.208;9.182;2023-08-06T02:15:27;98869.19;;;13.95;100.00
12594;BME280;6362;50.208;9.182;2023-08-06T02:17:52;98872.41;;;14.02;100.00
12594;BME280;6362;50.208;9.182;2023-08-06T02:20:18;98865.47;;;14.01;100.00
12594;BME280;6362;50.208;9.182;2023-08-06T02:22:43;98865.47;;;14.01;100.00
12594;BME280;6362;50.208;9.182;2023-08-06T02:25:08;98868.03;;;14.03;100.00
12594;BME280;6362;50.208;9.182;2023-08-06T02:27:34;98858.41;;;14.03;100.00
12594;BME280;6362;50.208;9.182;2023-08-06T02:29:59;98853.94;;;14.07;100.00
12594;BME280;6362;50.208;9.182;2023-08-06T02:32:25;98853.94;;;14.07;100.00
12594;BME280;6362;50.208;9.182;2023-08-06T02:34:51;98847.53;;;14.14;100.00
12594;BME280;6362;50.208;9.182;2023-08-06T02:37:16;98846.69;;;14.13;100.00
12594;BME280;6362;50.208;9.182;2023-08-06T02:39:41;98842.31;;;14.14;100.00
12594;BME280;6362;50.208;9.182;2023-08-06T02:42:08;98825.84;;;14.12;100.00
12594;BME280;6362;50.208;9.182;2023-08-06T02:44:35;98836.13;;;14.16;100.00
12594;BME280;6362;50.208;9.182;2023-08-06T02:47:00;98832.44;;;14.20;100.00
12594;BME280;6362;50.208;9.182;2023-08-06T02:49:26;98823.72;;;14.21;100.00
12594;BME280;6362;50.208;9.182;2023-08-06T02:51:51;98822.72;;;14.24;100.00
12594;BME280;6362;50.208;9.182;2023-08-06T02:54:18;98822.56;;;14.29;100.00
12594;BME280;6362;50.208;9.182;2023-08-06T02:56:44;98816.47;;;14.28;100.00
12594;BME280;6362;50.208;9.182;2023-08-06T02:59:11;98811.06;;;14.33;100.00
12594;BME280;6362;50.208;9.182;2023-08-06T03:01:36;98820.59;;;14.34;100.00
12594;BME280;6362;50.208;9.182;2023-08-06T03:04:02;98814.38;;;14.36;100.00
12594;BME280;6362;50.208;9.182;2023-08-06T03:06:28;98818.56;;;14.40;100.00
12594;BME280;6362;50.208;9.182;2023-08-06T03:08:53;98808.03;;;14.42;100.00
12594;BME280;6362;50.208;9.182;2023-08-06T03:11:19;98805.22;;;14.48;100.00
12594;BME280;6362;50.208;9.182;2023-08-06T03:13:44;98799.97;;;14.48;100.00
12594;BME280;6362;50.208;9.182;2023-08-06T03:16:09;98800.53;;;14.56;100.00
12594;BME280;6362;50.208;9.182;2023-08-06T03:18:35;98802.16;;;14.59;100.00
12594;BME280;6362;50.208;9.182;2023-08-06T03:21:00;98794.09;;;14.63;100.00
12594;BME280;6362;50.208;9.182;2023-08-06T03:23:26;98788.13;;;14.60;100.00
12594;BME280;6362;50.208;9.182;2023-08-06T03:25:51;98782.91;;;14.60;100.00
12594;BME280;6362;50.208;9.182;2023-08-06T03:28:17;98786.19;;;14.65;100.00
12594;BME280;6362;50.208;9.182;2023-08-06T03:30:42;98784.75;;;14.58;100.00
12594;BME280;6362;50.208;9.182;2023-08-06T03:33:08;98781.13;;;14.60;100.00
12594;BME280;6362;50.208;9.182;2023-08-06T03:35:33;98784.81;;;14.56;100.00
12594;BME280;6362;50.208;9.182;2023-08-06T03:37:58;98782.06;;;14.59;100.00
12594;BME280;6362;50.208;9.182;2023-08-06T03:40:24;98785.59;;;14.58;100.00
12594;BME280;6362;50.208;9.182;2023-08-06T03:42:49;98781.22;;;14.59;100.00
12594;BME280;6362;50.208;9.182;2023-08-06T03:45:15;98790.16;;;14.53;100.00
12594;BME280;6362;50.208;9.182;2023-08-06T03:47:40;98783.97;;;14.56;100.00
12594;BME280;6362;50.208;9.182;2023-08-06T03:50:06;98781.13;;;14.60;100.00
12594;BME280;6362;50.208;9.182;2023-08-06T03:52:31;98783.72;;;14.62;100.00
12594;BME280;6362;50.208;9.182;2023-08-06T03:54:57;98777.56;;;14.63;100.00
12594;BME280;6362;50.208;9.182;2023-08-06T03:57:22;98770.44;;;14.66;100.00
12594;BME280;6362;50.208;9.182;2023-08-06T03:59:48;98767.09;;;14.63;100.00
12594;BME280;6362;50.208;9.182;2023-08-06T04:02:13;98766.91;;;14.67;100.00
12594;BME280;6362;50.208;9.182;2023-08-06T04:04:38;98758.66;;;14.56;100.00
12594;BME280;6362;50.208;9.182;2023-08-06T04:07:04;98768.72;;;14.65;100.00
12594;BME280;6362;50.208;9.182;2023-08-06T04:09:29;98766.16;;;14.64;100.00
12594;BME280;6362;50.208;9.182;2023-08-06T04:11:55;98766.16;;;14.64;100.00
12594;BME280;6362;50.208;9.182;2023-08-06T04:14:21;98761.75;;;14.66;100.00
12594;BME280;6362;50.208;9.182;2023-08-06T04:16:46;98765.72;;;14.74;100.00
12594;BME280;6362;50.208;9.182;2023-08-06T04:19:12;98760.63;;;14.71;100.00
12594;BME280;6362;50.208;9.182;2023-08-06T04:21:37;98764.94;;;14.72;100.00
12594;BME280;6362;50.208;9.182;2023-08-06T04:24:03;98760.66;;;14.70;100.00
12594;BME280;6362;50.208;9.182;2023-08-06T04:26:28;98762.72;;;14.63;100.00
12594;BME280;6362;50.208;9.182;2023-08-06T04:28:54;98757.53;;;14.62;100.00
12594;BME280;6362;50.208;9.182;2023-08-06T04:31:19;98758.66;;;14.56;100.00
12594;BME280;6362;50.208;9.182;2023-08-06T04:33:44;98756.88;;;14.57;100.00
12594;BME280;6362;50.208;9.182;2023-08-06T04:36:11;98752.69;;;14.52;100.00
12594;BME280;6362;50.208;9.182;2023-08-06T04:38:37;98748.47;;;14.50;100.00
12594;BME280;6362;50.208;9.182;2023-08-06T04:41:03;98753.53;;;14.53;100.00
12594;BME280;6362;50.208;9.182;2023-08-06T04:43:29;98743.91;;;14.53;100.00
12594;BME280;6362;50.208;9.182;2023-08-06T04:45:55;98752.63;;;14.54;100.00
12594;BME280;6362;50.208;9.182;2023-08-06T04:48:22;98752.63;;;14.54;100.00
12594;BME280;6362;50.208;9.182;2023-08-06T04:50:49;98755.69;;;14.64;100.00
12594;BME280;6362;50.208;9.182;2023-08-06T04:53:15;98754.75;;;14.66;100.00
12594;BME280;6362;50.208;9.182;2023-08-06T04:55:40;98756.75;;;14.80;100.00
12594;BME280;6362;50.208;9.182;2023-08-06T04:58:09;98761.72;;;14.86;100.00
12594;BME280;6362;50.208;9.182;2023-08-06T05:00:34;98754.31;;;14.96;99.66
12594;BME280;6362;50.208;9.182;2023-08-06T05:03:00;98755.06;;;14.98;98.47
12594;BME280;6362;50.208;9.182;2023-08-06T05:05:26;98757.88;;;15.14;98.96
12594;BME280;6362;50.208;9.182;2023-08-06T05:07:54;98752.91;;;15.26;97.53
12594;BME280;6362;50.208;9.182;2023-08-06T05:10:19;98757.03;;;15.32;96.10
12594;BME280;6362;50.208;9.182;2023-08-06T05:12:45;98756.97;;;15.34;96.48
12594;BME280;6362;50.208;9.182;2023-08-06T05:15:10;98757.66;;;15.37;96.16
12594;BME280;6362;50.208;9.182;2023-08-06T05:17:36;98749.81;;;15.37;95.74
12594;BME280;6362;50.208;9.182;2023-08-06T05:20:01;98760.09;;;15.42;94.50
12594;BME280;6362;50.208;9.182;2023-08-06T05:22:27;98755.47;;;15.47;93.82
12594;BME280;6362;50.208;9.182;2023-08-06T05:24:52;98754.63;;;15.46;94.07
12594;BME280;6362;50.208;9.182;2023-08-06T05:27:17;98768.44;;;15.50;94.39
12594;BME280;6362;50.208;9.182;2023-08-06T05:29:47;98766.53;;;15.53;93.07
12594;BME280;6362;50.208;9.182;2023-08-06T05:32:13;98767.25;;;15.57;93.91
12594;BME280;6362;50.208;9.182;2023-08-06T05:34:38;98770.91;;;15.53;93.91
12594;BME280;6362;50.208;9.182;2023-08-06T05:37:04;98768.66;;;15.45;92.83
12594;BME280;6362;50.208;9.182;2023-08-06T05:39:29;98770.63;;;15.40;93.71
12594;BME280;6362;50.208;9.182;2023-08-06T05:41:55;98776.00;;;15.37;93.20
12594;BME280;6362;50.208;9.182;2023-08-06T05:44:21;98771.53;;;15.20;95.59
12594;BME280;6362;50.208;9.182;2023-08-06T05:46:47;98774.69;;;15.08;98.35
12594;BME280;6362;50.208;9.182;2023-08-06T05:49:12;98775.97;;;14.99;100.00
12594;BME280;6362;50.208;9.182;2023-08-06T05:51:39;98767.97;;;14.82;100.00
12594;BME280;6362;50.208;9.182;2023-08-06T05:54:04;98764.66;;;14.78;100.00
12594;BME280;6362;50.208;9.182;2023-08-06T05:56:30;98769.44;;;14.69;100.00
12594;BME280;6362;50.208;9.182;2023-08-06T05:58:55;98773.94;;;14.65;100.00
12594;BME280;6362;50.208;9.182;2023-08-06T06:01:21;98769.81;;;14.60;100.00
12594;BME280;6362;50.208;9.182;2023-08-06T06:03:46;98770.75;;;14.59;100.00
12594;BME280;6362;50.208;9.182;2023-08-06T06:06:12;98770.81;;;14.57;100.00
12594;BME280;6362;50.208;9.182;2023-08-06T06:08:37;98771.78;;;14.55;100.00
12594;BME280;6362;50.208;9.182;2023-08-06T06:11:03;98764.75;;;14.57;100.00
12594;BME280;6362;50.208;9.182;2023-08-06T06:13:28;98771.41;;;14.64;100.00
12594;BME280;6362;50.208;9.182;2023-08-06T06:15:54;98768.38;;;14.52;100.00
12594;BME280;6362;50.208;9.182;2023-08-06T06:18:21;98765.59;;;14.57;100.00
12594;BME280;6362;50.208;9.182;2023-08-06T06:20:47;98766.81;;;14.48;100.00
12594;BME280;6362;50.208;9.182;2023-08-06T06:23:12;98764.19;;;14.48;100.00
12594;BME280;6362;50.208;9.182;2023-08-06T06:25:42;98770.16;;;14.52;100.00
12594;BME280;6362;50.208;9.182;2023-08-06T06:28:08;98770.03;;;14.55;100.00
12594;BME280;6362;50.208;9.182;2023-08-06T06:30:33;98775.28;;;14.55;100.00
12594;BME280;6362;50.208;9.182;2023-08-06T06:32:59;98772.88;;;14.49;100.00
12594;BME280;6362;50.208;9.182;2023-08-06T06:35:24;98776.59;;;14.43;100.00
12594;BME280;6362;50.208;9.182;2023-08-06T06:37:49;98778.50;;;14.40;100.00
12594;BME280;6362;50.208;9.182;2023-08-06T06:40:15;98774.03;;;14.42;100.00
12594;BME280;6362;50.208;9.182;2023-08-06T06:42:40;98773.84;;;14.46;100.00
12594;BME280;6362;50.208;9.182;2023-08-06T06:45:06;98773.97;;;14.43;100.00
12594;BME280;6362;50.208;9.182;2023-08-06T06:47:32;98779.88;;;14.48;100.00
12594;BME280;6362;50.208;9.182;2023-08-06T06:49:58;98783.44;;;14.47;100.00
12594;BME280;6362;50.208;9.182;2023-08-06T06:52:23;98774.66;;;14.48;100.00
12594;BME280;6362;50.208;9.182;2023-08-06T06:54:48;98769.25;;;14.53;100.00
12594;BME280;6362;50.208;9.182;2023-08-06T06:57:14;98769.50;;;14.47;100.00
12594;BME280;6362;50.208;9.182;2023-08-06T06:59:39;98771.25;;;14.46;100.00
12594;BME280;6362;50.208;9.182;2023-08-06T07:02:05;98768.47;;;14.51;100.00
12594;BME280;6362;50.208;9.182;2023-08-06T07:04:30;98773.44;;;14.57;100.00
12594;BME280;6362;50.208;9.182;2023-08-06T07:06:56;98774.94;;;14.63;100.00
12594;BME280;6362;50.208;9.182;2023-08-06T07:09:21;98764.94;;;14.72;100.00
12594;BME280;6362;50.208;9.182;2023-08-06T07:11:47;98764.78;;;14.75;100.00
12594;BME280;6362;50.208;9.182;2023-08-06T07:14:12;98759.44;;;14.78;100.00
12594;BME280;6362;50.208;9.182;2023-08-06T07:16:39;98773.28;;;14.81;100.00
12594;BME280;6362;50.208;9.182;2023-08-06T07:19:05;98766.44;;;14.78;100.00
12594;BME280;6362;50.208;9.182;2023-08-06T07:21:31;98764.53;;;14.82;100.00
12594;BME280;6362;50.208;9.182;2023-08-06T07:23:56;98773.19;;;14.84;100.00
12594;BME280;6362;50.208;9.182;2023-08-06T07:26:22;98771.25;;;14.87;100.00
12594;BME280;6362;50.208;9.182;2023-08-06T07:28:47;98771.91;;;14.92;100.00
12594;BME280;6362;50.208;9.182;2023-08-06T07:31:13;98776.75;;;15.01;100.00
12594;BME280;6362;50.208;9.182;2023-08-06T07:33:38;98768.03;;;15.01;100.00
12594;BME280;6362;50.208;9.182;2023-08-06T07:36:14;98768.38;;;14.93;100.00
12594;BME280;6362;50.208;9.182;2023-08-06T07:38:39;98767.47;;;14.94;100.00
12594;BME280;6362;50.208;9.182;2023-08-06T07:41:05;98762.25;;;14.94;100.00
12594;BME280;6362;50.208;9.182;2023-08-06T07:43:31;98765.13;;;14.88;100.00
12594;BME280;6362;50.208;9.182;2023-08-06T07:46:00;98766.03;;;14.87;100.00
12594;BME280;6362;50.208;9.182;2023-08-06T07:48:26;98771.97;;;14.91;100.00
12594;BME280;6362;50.208;9.182;2023-08-06T07:50:55;98757.59;;;14.81;100.00
12594;BME280;6362;50.208;9.182;2023-08-06T07:53:21;98768.78;;;14.84;100.00
12594;BME280;6362;50.208;9.182;2023-08-06T07:55:51;98759.50;;;14.77;100.00
12594;BME280;6362;50.208;9.182;2023-08-06T07:58:17;98759.72;;;14.72;100.00
12594;BME280;6362;50.208;9.182;2023-08-06T08:00:42;98758.03;;;14.90;100.00
12594;BME280;6362;50.208;9.182;2023-08-06T08:03:11;98752.53;;;14.96;100.00
12594;BME280;6362;50.208;9.182;2023-08-06T08:05:37;98755.81;;;15.01;100.00
12594;BME280;6362;50.208;9.182;2023-08-06T08:08:02;98759.34;;;15.00;100.00
12594;BME280;6362;50.208;9.182;2023-08-06T08:10:28;98752.91;;;15.08;100.00
12594;BME280;6362;50.208;9.182;2023-08-06T08:12:53;98753.44;;;15.16;100.00
12594;BME280;6362;50.208;9.182;2023-08-06T08:15:19;98751.59;;;15.18;100.00
12594;BME280;6362;50.208;9.182;2023-08-06T08:17:44;98750.00;;;15.14;100.00
12594;BME280;6362;50.208;9.182;2023-08-06T08:20:10;98757.47;;;15.23;100.00
12594;BME280;6362;50.208;9.182;2023-08-06T08:22:35;98748.69;;;15.24;100.00
12594;BME280;6362;50.208;9.182;2023-08-06T08:25:01;98746.69;;;15.29;100.00
12594;BME280;6362;50.208;9.182;2023-08-06T08:27:26;98742.78;;;15.38;100.00
12594;BME280;6362;50.208;9.182;2023-08-06T08:29:52;98743.22;;;15.47;100.00
12594;BME280;6362;50.208;9.182;2023-08-06T08:32:17;98744.03;;;15.49;99.12
12594;BME280;6362;50.208;9.182;2023-08-06T08:34:42;98738.78;;;15.49;100.00
12594;BME280;6362;50.208;9.182;2023-08-06T08:37:09;98741.03;;;15.57;99.45
12594;BME280;6362;50.208;9.182;2023-08-06T08:39:34;98745.28;;;15.59;98.24
12594;BME280;6362;50.208;9.182;2023-08-06T08:42:00;98757.84;;;15.72;97.39
12594;BME280;6362;50.208;9.182;2023-08-06T08:44:27;98739.22;;;15.78;97.35
12594;BME280;6362;50.208;9.182;2023-08-06T08:46:54;98744.06;;;15.86;97.54
12594;BME280;6362;50.208;9.182;2023-08-06T08:49:23;98734.91;;;15.77;96.33
12594;BME280;6362;50.208;9.182;2023-08-06T08:51:49;98740.41;;;15.71;98.07
12594;BME280;6362;50.208;9.182;2023-08-06T08:54:17;98745.28;;;15.59;98.49
12594;BME280;6362;50.208;9.182;2023-08-06T08:56:43;98741.88;;;15.57;98.81
12594;BME280;6362;50.208;9.182;2023-08-06T08:59:10;98737.84;;;15.50;100.00
12594;BME280;6362;50.208;9.182;2023-08-06T09:01:36;98733.81;;;15.62;100.00
12594;BME280;6362;50.208;9.182;2023-08-06T09:04:02;98746.19;;;15.58;100.00
12594;BME280;6362;50.208;9.182;2023-08-06T09:06:29;98746.91;;;15.62;100.00
12594;BME280;6362;50.208;9.182;2023-08-06T09:09:09;98746.78;;;15.65;100.00
12594;BME280;6362;50.208;9.182;2023-08-06T09:11:42;98742.56;;;15.63;100.00
12594;BME280;6362;50.208;9.182;2023-08-06T09:14:08;98744.50;;;15.57;99.96
12594;BME280;6362;50.208;9.182;2023-08-06T09:16:37;98746.72;;;15.67;99.42
12594;BME280;6362;50.208;9.182;2023-08-06T09:19:09;98743.53;;;15.79;98.75
12594;BME280;6362;50.208;9.182;2023-08-06T09:21:42;98749.06;;;15.73;97.09
12594;BME280;6362;50.208;9.182;2023-08-06T09:24:08;98745.66;;;15.71;97.17
12594;BME280;6362;50.208;9.182;2023-08-06T09:26:35;98751.03;;;15.68;98.77
12594;BME280;6362;50.208;9.182;2023-08-06T09:29:01;98750.13;;;15.69;97.58
12594;BME280;6362;50.208;9.182;2023-08-06T09:31:53;98749.19;;;15.70;98.46
12594;BME280;6362;50.208;9.182;2023-08-06T09:34:22;98741.34;;;15.70;97.81
12594;BME280;6362;50.208;9.182;2023-08-06T09:36:49;98750.03;;;15.70;97.55
12594;BME280;6362;50.208;9.182;2023-08-06T09:39:17;98746.78;;;15.84;96.94
12594;BME280;6362;50.208;9.182;2023-08-06T09:41:44;98744.78;;;15.89;96.87
12594;BME280;6362;50.208;9.182;2023-08-06T09:44:18;98745.13;;;16.00;95.71
12594;BME280;6362;50.208;9.182;2023-08-06T09:47:02;98740.91;;;16.32;94.58
12594;BME280;6362;50.208;9.182;2023-08-06T09:49:39;98744.28;;;16.52;91.60
12594;BME280;6362;50.208;9.182;2023-08-06T09:52:11;98740.50;;;16.75;91.36
12594;BME280;6362;50.208;9.182;2023-08-06T09:54:37;98738.19;;;16.86;87.52
12594;BME280;6362;50.208;9.182;2023-08-06T09:57:02;98734.50;;;17.06;88.20
12594;BME280;6362;50.208;9.182;2023-08-06T09:59:29;98732.75;;;17.22;87.40
12594;BME280;6362;50.208;9.182;2023-08-06T10:01:56;98725.75;;;17.38;86.00
12594;BME280;6362;50.208;9.182;2023-08-06T10:04:22;98721.66;;;17.49;86.09
12594;BME280;6362;50.208;9.182;2023-08-06T10:06:48;98716.50;;;17.47;83.65
12594;BME280;6362;50.208;9.182;2023-08-06T10:09:14;98717.94;;;17.53;85.81
12594;BME280;6362;50.208;9.182;2023-08-06T10:11:40;98717.78;;;17.56;83.71
12594;BME280;6362;50.208;9.182;2023-08-06T10:14:11;98713.38;;;17.56;84.47
12594;BME280;6362;50.208;9.182;2023-08-06T10:16:38;98714.03;;;17.60;84.00
12594;BME280;6362;50.208;9.182;2023-08-06T10:19:07;98716.00;;;17.56;82.58
12594;BME280;6362;50.208;9.182;2023-08-06T10:21:34;98713.03;;;17.62;80.98
12594;BME280;6362;50.208;9.182;2023-08-06T10:23:59;98710.06;;;17.68;80.81
12594;BME280;6362;50.208;9.182;2023-08-06T10:26:29;98707.88;;;17.77;81.35
12594;BME280;6362;50.208;9.182;2023-08-06T10:28:55;98708.50;;;17.64;80.75
12594;BME280;6362;50.208;9.182;2023-08-06T10:31:53;98696.06;;;17.52;81.34
12594;BME280;6362;50.208;9.182;2023-08-06T10:34:20;98703.88;;;17.38;83.73
12594;BME280;6362;50.208;9.182;2023-08-06T10:36:45;98723.34;;;17.18;87.36
12594;BME280;6362;50.208;9.182;2023-08-06T10:39:14;98733.09;;;16.48;88.24
12594;BME280;6362;50.208;9.182;2023-08-06T10:41:41;98732.25;;;16.48;88.78
12594;BME280;6362;50.208;9.182;2023-08-06T10:44:09;98733.94;;;16.14;87.29
12594;BME280;6362;50.208;9.182;2023-08-06T10:46:35;98737.53;;;15.94;89.63
12594;BME280;6362;50.208;9.182;2023-08-06T10:49:01;98737.78;;;15.71;91.32
12594;BME280;6362;50.208;9.182;2023-08-06T10:51:26;98733.53;;;15.49;92.64
12594;BME280;6362;50.208;9.182;2023-08-06T10:53:52;98724.41;;;15.39;93.63
12594;BME280;6362;50.208;9.182;2023-08-06T10:56:20;98722.91;;;15.15;95.14
12594;BME280;6362;50.208;9.182;2023-08-06T10:58:50;98723.38;;;15.04;96.89
12594;BME280;6362;50.208;9.182;2023-08-06T11:01:16;98725.72;;;14.91;98.61
12594;BME280;6362;50.208;9.182;2023-08-06T11:03:42;98727.56;;;14.89;99.51
12594;BME280;6362;50.208;9.182;2023-08-06T11:06:09;98721.47;;;14.89;100.00
12594;BME280;6362;50.208;9.182;2023-08-06T11:08:36;98720.09;;;14.80;100.00
12594;BME280;6362;50.208;9.182;2023-08-06T11:11:13;98719.81;;;14.86;100.00
12594;BME280;6362;50.208;9.182;2023-08-06T11:13:49;98727.56;;;14.89;100.00
12594;BME280;6362;50.208;9.182;2023-08-06T11:16:22;98728.31;;;14.91;100.00
12594;BME280;6362;50.208;9.182;2023-08-06T11:18:51;98730.59;;;14.99;100.00
12594;BME280;6362;50.208;9.182;2023-08-06T11:21:22;98726.84;;;15.04;100.00
12594;BME280;6362;50.208;9.182;2023-08-06T11:23:49;98725.78;;;14.90;100.00
12594;BME280;6362;50.208;9.182;2023-08-06T11:26:19;98719.78;;;15.07;100.00
12594;BME280;6362;50.208;9.182;2023-08-06T11:28:45;98724.81;;;15.11;100.00
12594;BME280;6362;50.208;9.182;2023-08-06T11:31:21;98723.81;;;15.14;100.00
12594;BME280;6362;50.208;9.182;2023-08-06T11:33:49;98723.50;;;15.21;100.00
12594;BME280;6362;50.208;9.182;2023-08-06T11:36:15;98728.09;;;15.35;100.00
12594;BME280;6362;50.208;9.182;2023-08-06T11:38:40;98718.78;;;15.47;100.00
12594;BME280;6362;50.208;9.182;2023-08-06T11:41:06;98727.72;;;15.62;100.00
12594;BME280;6362;50.208;9.182;2023-08-06T11:43:32;98724.66;;;15.90;100.00
12594;BME280;6362;50.208;9.182;2023-08-06T11:45:58;98714.81;;;16.29;98.13
12594;BME280;6362;50.208;9.182;2023-08-06T11:48:25;98715.38;;;16.86;96.18
12594;BME280;6362;50.208;9.182;2023-08-06T11:50:54;98714.47;;;17.52;89.41
12594;BME280;6362;50.208;9.182;2023-08-06T11:53:20;98699.44;;;18.02;83.93
12594;BME280;6362;50.208;9.182;2023-08-06T11:55:45;98700.34;;;18.61;83.04
12594;BME280;6362;50.208;9.182;2023-08-06T11:58:11;98699.63;;;19.02;80.78
12594;BME280;6362;50.208;9.182;2023-08-06T12:00:37;98690.31;;;19.10;80.21
12594;BME280;6362;50.208;9.182;2023-08-06T12:03:04;98694.25;;;19.03;77.67
12594;BME280;6362;50.208;9.182;2023-08-06T12:05:31;98685.31;;;18.91;82.19
12594;BME280;6362;50.208;9.182;2023-08-06T12:08:00;98687.75;;;18.66;81.15
12594;BME280;6362;50.208;9.182;2023-08-06T12:10:27;98685.91;;;18.38;83.02
12594;BME280;6362;50.208;9.182;2023-08-06T12:12:54;98690.31;;;18.37;86.08
12594;BME280;6362;50.208;9.182;2023-08-06T12:15:20;98686.19;;;18.47;85.58
12594;BME280;6362;50.208;9.182;2023-08-06T12:17:45;98688.59;;;18.66;85.13
12594;BME280;6362;50.208;9.182;2023-08-06T12:20:11;98695.66;;;18.80;84.41
12594;BME280;6362;50.208;9.182;2023-08-06T12:22:38;98692.19;;;18.80;81.39
12594;BME280;6362;50.208;9.182;2023-08-06T12:25:09;98694.72;;;18.81;81.34
12594;BME280;6362;50.208;9.182;2023-08-06T12:27:42;98687.72;;;18.52;81.10
12594;BME280;6362;50.208;9.182;2023-08-06T12:30:08;98689.78;;;18.46;83.48
12594;BME280;6362;50.208;9.182;2023-08-06T12:32:34;98691.53;;;18.02;80.58
12594;BME280;6362;50.208;9.182;2023-08-06T12:35:00;98700.00;;;18.07;83.70
12594;BME280;6362;50.208;9.182;2023-08-06T12:37:26;98698.69;;;18.00;81.77
12594;BME280;6362;50.208;9.182;2023-08-06T12:39:51;98702.78;;;17.89;81.44
12594;BME280;6362;50.208;9.182;2023-08-06T12:42:17;98716.34;;;17.50;82.55
12594;BME280;6362;50.208;9.182;2023-08-06T12:44:42;98746.38;;;17.13;83.83
12594;BME280;6362;50.208;9.182;2023-08-06T12:47:08;98758.13;;;16.73;86.64
12594;BME280;6362;50.208;9.182;2023-08-06T12:49:34;98778.09;;;16.41;91.31
12594;BME280;6362;50.208;9.182;2023-08-06T12:51:59;98769.56;;;16.01;93.72
12594;BME280;6362;50.208;9.182;2023-08-06T12:54:25;98787.59;;;15.71;96.30
12594;BME280;6362;50.208;9.182;2023-08-06T12:56:51;98799.19;;;15.65;98.19
12594;BME280;6362;50.208;9.182;2023-08-06T12:59:17;98806.00;;;15.69;98.70
12594;BME280;6362;50.208;9.182;2023-08-06T13:01:43;98808.13;;;15.80;97.21
12594;BME280;6362;50.208;9.182;2023-08-06T13:04:09;98827.53;;;15.76;95.56
12594;BME280;6362;50.208;9.182;2023-08-06T13:06:35;98824.81;;;15.58;95.39
12594;BME280;6362;50.208;9.182;2023-08-06T13:11:32;98838.13;;;15.54;99.18
12594;BME280;6362;50.208;9.182;2023-08-06T13:14:05;98844.06;;;15.39;97.67
12594;BME280;6362;50.208;9.182;2023-08-06T13:16:32;98846.16;;;15.30;97.20